x

Isle Of Shoals, Nh (iosn3) Weather Station

4:00am - Sat 24th Feb 2018 All times are EST. -5 hours from GMT.

  • Wind
    11mph, 13mph gusts
  • Air Temp 38°f
  • Sea Pressure 1015mb
  • Isle Of Shoals, Nh
  • Isle Of Shoals, Nh

More Historic Weather Station data

Upgrade to MSW Pro to gain access to the past 30 days of data for over 8000 Wavebouys and Weather Stations around the globe.

Join

Comparision Forecast

View Surf forecast
   
Sat 02/24 4:00am 11 13 mph 1015mb 38f
3:00am 18 21 mph 1015mb 38f
2:00am 21 22 mph 1015.2mb 37f
1:00am 18 22 mph 1016mb 37f
12:00am 16 17 mph 1016.9mb 36f
Fri 02/23 11:00pm 18 20 mph 1018.7mb 36f
10:00pm 17 18 mph 1020.8mb 35f
9:00pm 20 21 mph 1022.3mb 36f
8:00pm 20 22 mph 1023.8mb 37f
7:00pm 23 24 mph 1024.7mb 37f
6:00pm 25 26 mph 1027mb 36f
5:00pm 26 28 mph 1028.8mb 37f
4:00pm 22 24 mph 1030.2mb 38f
3:00pm 18 20 mph 1031.5mb 37f
2:00pm 13 15 mph 1033.4mb 37f
1:00pm 11 13 mph 1034.9mb 37f
12:00pm 11 13 mph 1036.6mb 37f
11:00am 14 15 mph 1037.2mb 36f
10:00am 14 15 mph 1038.2mb 36f
9:00am 15 16 mph 1038.7mb 36f
8:00am 15 16 mph 1039.3mb 35f
7:00am 15 17 mph 1039.3mb 35f
6:00am 17 20 mph 1038.9mb 35f
5:00am 18 21 mph 1038.8mb 36f
4:00am 11 13 mph 1039.7mb 34f
3:00am 7 8 mph 1039.4mb 33f
2:00am 8 9 mph 1039.4mb 33f
1:00am 5 6 mph 1039mb 33f
12:00am 6 6 mph 1039.1mb 33f
Thu 02/22 11:00pm 7 8 mph 1039.1mb 33f
10:00pm 9 10 mph 1039.2mb 33f
9:00pm 5 6 mph 1038.9mb 32f
8:00pm  -  2 mph 1038.3mb 32f
7:00pm 3 3 mph 1038mb 32f
6:00pm 5 6 mph 1038.3mb 32f
5:00pm 8 9 mph 1038.5mb 32f
4:00pm 6 7 mph 1037.7mb 32f
3:00pm 11 13 mph 1037.2mb 33f
2:00pm 10 10 mph 1036.6mb 37f
1:00pm 9 10 mph 1037.1mb 37f
12:00pm 10 11 mph 1038.2mb 37f
11:00am 10 14 mph 1038.7mb 37f
10:00am 14 16 mph 1038.1mb 37f
9:00am 14 16 mph 1037.5mb 38f
8:00am 14 17 mph 1037.6mb 38f
7:00am 13 16 mph 1036.9mb 39f
6:00am 16 18 mph 1035.8mb 40f
5:00am 15 17 mph 1035mb 41f
4:00am 16 18 mph 1033.3mb 42f
3:00am 16 18 mph 1032.9mb 43f
2:00am 15 17 mph 1031.8mb 44f
1:00am 23 25 mph 1030.4mb 46f
12:00am 23 26 mph 1028.6mb 49f
Wed 02/21 11:00pm 24 25 mph 1026.9mb 52f
10:00pm 26 28 mph 1026.2mb 54f
9:00pm 22 23 mph 1025.5mb 55f
8:00pm 33 36 mph 1023.5mb 56f
7:00pm 25 28 mph 1021.3mb 65f
6:00pm 26 28 mph 1018.8mb 63f
5:00pm 26 28 mph 1017.6mb 60f
4:00pm 30 31 mph 1016.8mb 61f
3:00pm 32 33 mph 1016.9mb 62f
2:00pm 28 30 mph 1016.9mb 62f
1:00pm 25 26 mph 1017.9mb 66f
12:00pm 21 22 mph 1019.1mb 60f
11:00am 22 23 mph 1020.4mb 59f
10:00am 22 23 mph 1020.8mb 54f
9:00am 21 21 mph 1021.2mb 51f
8:00am 11 11 mph 1021.5mb 42f
7:00am 5 5 mph 1021.9mb 38f
6:00am  -  1 mph 1022.1mb 38f
5:00am 2 2 mph 1022.8mb 38f
4:00am  -  1 mph 1023.5mb 38f
3:00am  -  1 mph 1023.9mb 38f
2:00am 3 3 mph 1024.5mb 38f
1:00am 1 1 mph 1024.8mb 39f
12:00am 3 3 mph 1025.3mb 39f
Tue 02/20 11:00pm 6 7 mph 1024.9mb 40f
10:00pm 5 6 mph 1025.2mb 39f
9:00pm 7 8 mph 1024.9mb 39f
8:00pm 9 11 mph 1024.5mb 39f
7:00pm 10 11 mph 1025mb 40f
6:00pm 11 13 mph 1023.7mb 40f
5:00pm 15 16 mph 1023.3mb 40f
4:00pm 15 16 mph 1022.8mb 41f
3:00pm 14 16 mph 1022.7mb 41f
2:00pm 17 18 mph 1022.6mb 41f
1:00pm 11 13 mph 1022.7mb 41f
12:00pm 11 13 mph 1023.3mb 42f
11:00am 11 11 mph 1023.4mb 42f